sensor_id;sensor_type;location;lat;lon;timestamp;pressure;altitude;pressure_sealevel;temperature
19102;BMP280;9683;49.028;12.064;2022-07-22T00:00:48;97651.75;;;24.08
19102;BMP280;9683;49.028;12.064;2022-07-22T00:03:15;97637.66;;;24.06
19102;BMP280;9683;49.028;12.064;2022-07-22T00:05:42;97637.53;;;23.98
19102;BMP280;9683;49.028;12.064;2022-07-22T00:08:08;97640.41;;;23.88
19102;BMP280;9683;49.028;12.064;2022-07-22T00:10:37;97650.88;;;23.81
19102;BMP280;9683;49.028;12.064;2022-07-22T00:13:03;97639.88;;;23.72
19102;BMP280;9683;49.028;12.064;2022-07-22T00:15:30;97636.63;;;23.70
19102;BMP280;9683;49.028;12.064;2022-07-22T00:17:57;97637.97;;;23.72
19102;BMP280;9683;49.028;12.064;2022-07-22T00:20:23;97638.47;;;23.74
19102;BMP280;9683;49.028;12.064;2022-07-22T00:22:50;97637.91;;;23.78
19102;BMP280;9683;49.028;12.064;2022-07-22T00:25:17;97630.50;;;23.78
19102;BMP280;9683;49.028;12.064;2022-07-22T00:27:45;97647.06;;;23.82
19102;BMP280;9683;49.028;12.064;2022-07-22T00:30:12;97634.56;;;23.81
19102;BMP280;9683;49.028;12.064;2022-07-22T00:32:39;97641.63;;;23.82
19102;BMP280;9683;49.028;12.064;2022-07-22T00:35:06;97638.25;;;23.71
19102;BMP280;9683;49.028;12.064;2022-07-22T00:37:33;97630.50;;;23.64
19102;BMP280;9683;49.028;12.064;2022-07-22T00:40:00;97634.31;;;23.63
19102;BMP280;9683;49.028;12.064;2022-07-22T00:42:26;97628.88;;;23.63
19102;BMP280;9683;49.028;12.064;2022-07-22T00:44:54;97631.59;;;23.63
19102;BMP280;9683;49.028;12.064;2022-07-22T00:47:21;97633.66;;;23.53
19102;BMP280;9683;49.028;12.064;2022-07-22T00:49:48;97628.63;;;23.46
19102;BMP280;9683;49.028;12.064;2022-07-22T00:52:14;97622.69;;;23.44
19102;BMP280;9683;49.028;12.064;2022-07-22T00:54:41;97627.00;;;23.45
19102;BMP280;9683;49.028;12.064;2022-07-22T00:57:08;97619.38;;;23.47
19102;BMP280;9683;49.028;12.064;2022-07-22T00:59:35;97624.19;;;23.50
19102;BMP280;9683;49.028;12.064;2022-07-22T01:02:03;97623.09;;;23.51
19102;BMP280;9683;49.028;12.064;2022-07-22T01:04:30;97623.72;;;23.48
19102;BMP280;9683;49.028;12.064;2022-07-22T01:06:56;97621.28;;;23.47
19102;BMP280;9683;49.028;12.064;2022-07-22T01:09:23;97633.25;;;23.46
19102;BMP280;9683;49.028;12.064;2022-07-22T01:11:50;97620.00;;;23.39
19102;BMP280;9683;49.028;12.064;2022-07-22T01:14:17;97616.75;;;23.37
19102;BMP280;9683;49.028;12.064;2022-07-22T01:16:44;97615.25;;;23.31
19102;BMP280;9683;49.028;12.064;2022-07-22T01:19:12;97621.03;;;23.24
19102;BMP280;9683;49.028;12.064;2022-07-22T01:21:40;97618.09;;;23.21
19102;BMP280;9683;49.028;12.064;2022-07-22T01:24:07;97617.63;;;23.19
19102;BMP280;9683;49.028;12.064;2022-07-22T01:26:33;97613.84;;;23.15
19102;BMP280;9683;49.028;12.064;2022-07-22T01:29:00;97609.53;;;23.14
19102;BMP280;9683;49.028;12.064;2022-07-22T01:31:27;97614.28;;;23.03
19102;BMP280;9683;49.028;12.064;2022-07-22T01:33:55;97601.69;;;22.94
19102;BMP280;9683;49.028;12.064;2022-07-22T01:36:22;97612.78;;;22.97
19102;BMP280;9683;49.028;12.064;2022-07-22T01:38:50;97618.59;;;22.85
19102;BMP280;9683;49.028;12.064;2022-07-22T01:41:16;97616.34;;;22.74
19102;BMP280;9683;49.028;12.064;2022-07-22T01:43:43;97616.16;;;22.65
19102;BMP280;9683;49.028;12.064;2022-07-22T01:46:10;97614.59;;;22.59
19102;BMP280;9683;49.028;12.064;2022-07-22T01:48:37;97614.13;;;22.52
19102;BMP280;9683;49.028;12.064;2022-07-22T01:51:03;97603.06;;;22.49
19102;BMP280;9683;49.028;12.064;2022-07-22T01:53:30;97609.53;;;22.53
19102;BMP280;9683;49.028;12.064;2022-07-22T01:55:58;97606.97;;;22.61
19102;BMP280;9683;49.028;12.064;2022-07-22T01:58:25;97607.50;;;22.63
19102;BMP280;9683;49.028;12.064;2022-07-22T02:00:51;97606.63;;;22.68
19102;BMP280;9683;49.028;12.064;2022-07-22T02:03:18;97599.81;;;22.70
19102;BMP280;9683;49.028;12.064;2022-07-22T02:05:45;97599.22;;;22.73
19102;BMP280;9683;49.028;12.064;2022-07-22T02:08:11;97603.28;;;22.76
19102;BMP280;9683;49.028;12.064;2022-07-22T02:10:39;97600.25;;;22.77
19102;BMP280;9683;49.028;12.064;2022-07-22T02:13:07;97596.44;;;22.78
19102;BMP280;9683;49.028;12.064;2022-07-22T02:15:33;97600.78;;;22.79
19102;BMP280;9683;49.028;12.064;2022-07-22T02:18:00;97601.59;;;22.80
19102;BMP280;9683;49.028;12.064;2022-07-22T02:20:35;97598.94;;;22.75
19102;BMP280;9683;49.028;12.064;2022-07-22T02:23:01;97604.16;;;22.71
19102;BMP280;9683;49.028;12.064;2022-07-22T02:25:28;97603.97;;;22.63
19102;BMP280;9683;49.028;12.064;2022-07-22T02:27:55;97604.31;;;22.56
19102;BMP280;9683;49.028;12.064;2022-07-22T02:30:22;97604.09;;;22.53
19102;BMP280;9683;49.028;12.064;2022-07-22T02:32:49;97601.44;;;22.48
19102;BMP280;9683;49.028;12.064;2022-07-22T02:35:16;97600.72;;;22.42
19102;BMP280;9683;49.028;12.064;2022-07-22T02:37:43;97608.09;;;22.36
19102;BMP280;9683;49.028;12.064;2022-07-22T02:40:10;97597.38;;;22.26
19102;BMP280;9683;49.028;12.064;2022-07-22T02:42:37;97605.34;;;22.18
19102;BMP280;9683;49.028;12.064;2022-07-22T02:45:04;97602.09;;;22.16
19102;BMP280;9683;49.028;12.064;2022-07-22T02:47:32;97605.63;;;22.16
19102;BMP280;9683;49.028;12.064;2022-07-22T02:49:59;97604.81;;;22.16
19102;BMP280;9683;49.028;12.064;2022-07-22T02:52:26;97603.25;;;22.10
19102;BMP280;9683;49.028;12.064;2022-07-22T02:54:53;97597.81;;;22.10
19102;BMP280;9683;49.028;12.064;2022-07-22T02:57:19;97605.16;;;22.09
19102;BMP280;9683;49.028;12.064;2022-07-22T02:59:46;97606.31;;;22.03
19102;BMP280;9683;49.028;12.064;2022-07-22T03:02:12;97602.91;;;21.92
19102;BMP280;9683;49.028;12.064;2022-07-22T03:04:40;97603.97;;;21.91
19102;BMP280;9683;49.028;12.064;2022-07-22T03:07:07;97610.22;;;21.92
19102;BMP280;9683;49.028;12.064;2022-07-22T03:09:34;97609.09;;;21.93
19102;BMP280;9683;49.028;12.064;2022-07-22T03:12:00;97606.66;;;21.91
19102;BMP280;9683;49.028;12.064;2022-07-22T03:14:27;97603.16;;;21.91
19102;BMP280;9683;49.028;12.064;2022-07-22T03:16:53;97605.09;;;21.85
19102;BMP280;9683;49.028;12.064;2022-07-22T03:19:20;97601.34;;;21.81
19102;BMP280;9683;49.028;12.064;2022-07-22T03:21:48;97603.81;;;21.78
19102;BMP280;9683;49.028;12.064;2022-07-22T03:24:15;97602.50;;;21.75
19102;BMP280;9683;49.028;12.064;2022-07-22T03:26:41;97604.91;;;21.77
19102;BMP280;9683;49.028;12.064;2022-07-22T03:29:08;97605.44;;;21.79
19102;BMP280;9683;49.028;12.064;2022-07-22T03:31:35;97604.34;;;21.80
19102;BMP280;9683;49.028;12.064;2022-07-22T03:34:01;97607.84;;;21.80
19102;BMP280;9683;49.028;12.064;2022-07-22T03:36:28;97605.13;;;21.80
19102;BMP280;9683;49.028;12.064;2022-07-22T03:38:57;97609.19;;;21.83
19102;BMP280;9683;49.028;12.064;2022-07-22T03:41:24;97614.03;;;21.86
19102;BMP280;9683;49.028;12.064;2022-07-22T03:43:50;97613.19;;;21.90
19102;BMP280;9683;49.028;12.064;2022-07-22T03:46:17;97605.63;;;21.92
19102;BMP280;9683;49.028;12.064;2022-07-22T03:48:43;97610.47;;;21.96
19102;BMP280;9683;49.028;12.064;2022-07-22T03:51:10;97608.25;;;21.98
19102;BMP280;9683;49.028;12.064;2022-07-22T03:53:37;97616.34;;;22.03
19102;BMP280;9683;49.028;12.064;2022-07-22T03:56:06;97616.34;;;22.03
19102;BMP280;9683;49.028;12.064;2022-07-22T03:58:33;97608.50;;;22.01
19102;BMP280;9683;49.028;12.064;2022-07-22T04:00:59;97612.84;;;21.97
19102;BMP280;9683;49.028;12.064;2022-07-22T04:03:26;97613.47;;;21.89
19102;BMP280;9683;49.028;12.064;2022-07-22T04:05:53;97611.91;;;21.83
19102;BMP280;9683;49.028;12.064;2022-07-22T04:08:19;97604.41;;;21.75
19102;BMP280;9683;49.028;12.064;2022-07-22T04:10:46;97609.06;;;21.69
19102;BMP280;9683;49.028;12.064;2022-07-22T04:13:14;97613.44;;;21.65
19102;BMP280;9683;49.028;12.064;2022-07-22T04:15:40;97608.59;;;21.62
19102;BMP280;9683;49.028;12.064;2022-07-22T04:18:07;97608.59;;;21.62
19102;BMP280;9683;49.028;12.064;2022-07-22T04:20:34;97606.97;;;21.61
19102;BMP280;9683;49.028;12.064;2022-07-22T04:23:00;97602.94;;;21.59
19102;BMP280;9683;49.028;12.064;2022-07-22T04:25:27;97600.25;;;21.54
19102;BMP280;9683;49.028;12.064;2022-07-22T04:27:54;97604.31;;;21.51
19102;BMP280;9683;49.028;12.064;2022-07-22T04:30:22;97608.19;;;21.45
19102;BMP280;9683;49.028;12.064;2022-07-22T04:32:49;97613.63;;;21.40
19102;BMP280;9683;49.028;12.064;2022-07-22T04:35:16;97607.16;;;21.36
19102;BMP280;9683;49.028;12.064;2022-07-22T04:37:43;97599.31;;;21.34
19102;BMP280;9683;49.028;12.064;2022-07-22T04:40:10;97599.84;;;21.36
19102;BMP280;9683;49.028;12.064;2022-07-22T04:42:37;97600.94;;;21.35
19102;BMP280;9683;49.028;12.064;2022-07-22T04:45:05;97606.59;;;21.39
19102;BMP280;9683;49.028;12.064;2022-07-22T04:47:33;97603.84;;;21.44
19102;BMP280;9683;49.028;12.064;2022-07-22T04:49:59;97610.88;;;21.50
19102;BMP280;9683;49.028;12.064;2022-07-22T04:52:26;97597.78;;;21.57
19102;BMP280;9683;49.028;12.064;2022-07-22T04:54:52;97604.22;;;21.66
19102;BMP280;9683;49.028;12.064;2022-07-22T04:57:19;97608.72;;;21.76
19102;BMP280;9683;49.028;12.064;2022-07-22T04:59:46;97612.41;;;21.85
19102;BMP280;9683;49.028;12.064;2022-07-22T05:02:12;97609.16;;;21.88
19102;BMP280;9683;49.028;12.064;2022-07-22T05:04:40;97602.19;;;21.77
19102;BMP280;9683;49.028;12.064;2022-07-22T05:07:07;97602.50;;;21.75
19102;BMP280;9683;49.028;12.064;2022-07-22T05:09:33;97603.81;;;21.78
19102;BMP280;9683;49.028;12.064;2022-07-22T05:12:00;97601.88;;;21.83
19102;BMP280;9683;49.028;12.064;2022-07-22T05:14:27;97606.41;;;21.93
19102;BMP280;9683;49.028;12.064;2022-07-22T05:16:53;97599.78;;;22.04
19102;BMP280;9683;49.028;12.064;2022-07-22T05:19:20;97602.69;;;22.13
19102;BMP280;9683;49.028;12.064;2022-07-22T05:21:48;97617.22;;;22.22
19102;BMP280;9683;49.028;12.064;2022-07-22T05:24:15;97604.34;;;22.32
19102;BMP280;9683;49.028;12.064;2022-07-22T05:26:41;97612.16;;;22.39
19102;BMP280;9683;49.028;12.064;2022-07-22T05:29:08;97602.84;;;22.45
19102;BMP280;9683;49.028;12.064;2022-07-22T05:31:34;97609.00;;;22.51
19102;BMP280;9683;49.028;12.064;2022-07-22T05:34:01;97605.72;;;22.54
19102;BMP280;9683;49.028;12.064;2022-07-22T05:36:28;97610.78;;;22.60
19102;BMP280;9683;49.028;12.064;2022-07-22T05:38:56;97616.13;;;22.70
19102;BMP280;9683;49.028;12.064;2022-07-22T05:41:23;97602.16;;;22.77
19102;BMP280;9683;49.028;12.064;2022-07-22T05:43:50;97610.47;;;22.85
19102;BMP280;9683;49.028;12.064;2022-07-22T05:46:16;97600.63;;;22.90
19102;BMP280;9683;49.028;12.064;2022-07-22T05:48:43;97607.91;;;22.94
19102;BMP280;9683;49.028;12.064;2022-07-22T05:51:11;97607.25;;;23.02
19102;BMP280;9683;49.028;12.064;2022-07-22T05:53:38;97602.53;;;23.08
19102;BMP280;9683;49.028;12.064;2022-07-22T05:56:07;97600.25;;;23.15
19102;BMP280;9683;49.028;12.064;2022-07-22T05:58:34;97607.03;;;23.17
19102;BMP280;9683;49.028;12.064;2022-07-22T06:01:00;97611.25;;;23.23
19102;BMP280;9683;49.028;12.064;2022-07-22T06:03:27;97603.84;;;23.29
19102;BMP280;9683;49.028;12.064;2022-07-22T06:05:54;97602.09;;;23.38
19102;BMP280;9683;49.028;12.064;2022-07-22T06:08:21;97602.84;;;23.44
19102;BMP280;9683;49.028;12.064;2022-07-22T06:10:48;97602.75;;;23.49
19102;BMP280;9683;49.028;12.064;2022-07-22T06:13:16;97603.19;;;23.56
19102;BMP280;9683;49.028;12.064;2022-07-22T06:15:42;97610.44;;;23.60
19102;BMP280;9683;49.028;12.064;2022-07-22T06:18:09;97614.19;;;23.64
19102;BMP280;9683;49.028;12.064;2022-07-22T06:20:36;97601.28;;;23.70
19102;BMP280;9683;49.028;12.064;2022-07-22T06:23:03;97612.91;;;23.75
19102;BMP280;9683;49.028;12.064;2022-07-22T06:25:30;97612.00;;;23.80
19102;BMP280;9683;49.028;12.064;2022-07-22T06:27:56;97606.47;;;23.85
19102;BMP280;9683;49.028;12.064;2022-07-22T06:30:24;97605.25;;;23.91
19102;BMP280;9683;49.028;12.064;2022-07-22T06:32:51;97607.91;;;23.96
19102;BMP280;9683;49.028;12.064;2022-07-22T06:35:18;97614.88;;;24.02
19102;BMP280;9683;49.028;12.064;2022-07-22T06:37:45;97609.81;;;24.09
19102;BMP280;9683;49.028;12.064;2022-07-22T06:40:11;97605.81;;;24.20
19102;BMP280;9683;49.028;12.064;2022-07-22T06:42:38;97611.38;;;24.29
19102;BMP280;9683;49.028;12.064;2022-07-22T06:45:06;97615.09;;;24.33
19102;BMP280;9683;49.028;12.064;2022-07-22T06:47:34;97611.19;;;24.39
19102;BMP280;9683;49.028;12.064;2022-07-22T06:50:02;97607.38;;;24.40
19102;BMP280;9683;49.028;12.064;2022-07-22T06:52:29;97612.69;;;24.45
19102;BMP280;9683;49.028;12.064;2022-07-22T06:54:55;97607.66;;;24.52
19102;BMP280;9683;49.028;12.064;2022-07-22T06:57:22;97605.59;;;24.58
19102;BMP280;9683;49.028;12.064;2022-07-22T06:59:49;97603.91;;;24.62
19102;BMP280;9683;49.028;12.064;2022-07-22T07:02:16;97598.16;;;24.63
19102;BMP280;9683;49.028;12.064;2022-07-22T07:04:44;97609.75;;;24.69
19102;BMP280;9683;49.028;12.064;2022-07-22T07:07:11;97602.38;;;24.70
19102;BMP280;9683;49.028;12.064;2022-07-22T07:09:37;97605.78;;;24.75
19102;BMP280;9683;49.028;12.064;2022-07-22T07:12:04;97603.28;;;24.79
19102;BMP280;9683;49.028;12.064;2022-07-22T07:14:31;97605.06;;;24.83
19102;BMP280;9683;49.028;12.064;2022-07-22T07:16:58;97608.84;;;24.87
19102;BMP280;9683;49.028;12.064;2022-07-22T07:19:25;97596.53;;;24.90
19102;BMP280;9683;49.028;12.064;2022-07-22T07:21:53;97598.81;;;24.96
19102;BMP280;9683;49.028;12.064;2022-07-22T07:24:19;97591.97;;;24.99
19102;BMP280;9683;49.028;12.064;2022-07-22T07:26:46;97594.34;;;25.00
19102;BMP280;9683;49.028;12.064;2022-07-22T07:29:12;97603.84;;;25.03
19102;BMP280;9683;49.028;12.064;2022-07-22T07:31:39;97590.13;;;25.08
19102;BMP280;9683;49.028;12.064;2022-07-22T07:34:06;97592.69;;;25.13
19102;BMP280;9683;49.028;12.064;2022-07-22T07:36:32;97591.47;;;25.19
19102;BMP280;9683;49.028;12.064;2022-07-22T07:39:00;97591.03;;;25.26
19102;BMP280;9683;49.028;12.064;2022-07-22T07:41:27;97591.56;;;25.28
19102;BMP280;9683;49.028;12.064;2022-07-22T07:43:53;97593.34;;;25.32
19102;BMP280;9683;49.028;12.064;2022-07-22T07:46:20;97588.88;;;25.36
19102;BMP280;9683;49.028;12.064;2022-07-22T07:48:47;97583.31;;;25.41
19102;BMP280;9683;49.028;12.064;2022-07-22T07:51:14;97587.34;;;25.44
19102;BMP280;9683;49.028;12.064;2022-07-22T07:53:40;97585.91;;;25.46
19102;BMP280;9683;49.028;12.064;2022-07-22T07:56:09;97582.16;;;25.56
19102;BMP280;9683;49.028;12.064;2022-07-22T07:58:35;97577.38;;;25.62
19102;BMP280;9683;49.028;12.064;2022-07-22T08:01:02;97573.72;;;25.66
19102;BMP280;9683;49.028;12.064;2022-07-22T08:03:29;97578.22;;;25.71
19102;BMP280;9683;49.028;12.064;2022-07-22T08:05:55;97570.22;;;25.74
19102;BMP280;9683;49.028;12.064;2022-07-22T08:08:22;97567.03;;;25.81
19102;BMP280;9683;49.028;12.064;2022-07-22T08:10:49;97575.09;;;25.86
19102;BMP280;9683;49.028;12.064;2022-07-22T08:13:17;97575.94;;;25.95
19102;BMP280;9683;49.028;12.064;2022-07-22T08:15:44;97568.22;;;25.97
19102;BMP280;9683;49.028;12.064;2022-07-22T08:18:11;97565.06;;;26.04
19102;BMP280;9683;49.028;12.064;2022-07-22T08:20:37;97571.97;;;26.10
19102;BMP280;9683;49.028;12.064;2022-07-22T08:23:04;97563.66;;;26.15
19102;BMP280;9683;49.028;12.064;2022-07-22T08:25:31;97564.63;;;26.19
19102;BMP280;9683;49.028;12.064;2022-07-22T08:27:58;97565.34;;;26.24
19102;BMP280;9683;49.028;12.064;2022-07-22T08:30:26;97559.72;;;26.29
19102;BMP280;9683;49.028;12.064;2022-07-22T08:32:54;97569.38;;;26.35
19102;BMP280;9683;49.028;12.064;2022-07-22T08:35:21;97557.50;;;26.40
19102;BMP280;9683;49.028;12.064;2022-07-22T08:37:48;97557.66;;;26.43
19102;BMP280;9683;49.028;12.064;2022-07-22T08:40:16;97558.03;;;26.51
19102;BMP280;9683;49.028;12.064;2022-07-22T08:42:45;97559.47;;;26.57
19102;BMP280;9683;49.028;12.064;2022-07-22T08:45:13;97551.13;;;26.62
19102;BMP280;9683;49.028;12.064;2022-07-22T08:47:43;97559.63;;;26.69
19102;BMP280;9683;49.028;12.064;2022-07-22T08:50:10;97557.88;;;26.73
19102;BMP280;9683;49.028;12.064;2022-07-22T08:52:37;97551.63;;;26.72
19102;BMP280;9683;49.028;12.064;2022-07-22T08:55:05;97551.16;;;26.79
19102;BMP280;9683;49.028;12.064;2022-07-22T08:57:32;97547.28;;;26.80
19102;BMP280;9683;49.028;12.064;2022-07-22T09:00:00;97547.94;;;26.85
19102;BMP280;9683;49.028;12.064;2022-07-22T09:02:36;97546.19;;;26.89
19102;BMP280;9683;49.028;12.064;2022-07-22T09:05:07;97549.41;;;26.92
19102;BMP280;9683;49.028;12.064;2022-07-22T09:07:36;97537.81;;;26.95
19102;BMP280;9683;49.028;12.064;2022-07-22T09:10:05;97546.19;;;26.98
19102;BMP280;9683;49.028;12.064;2022-07-22T09:12:32;97550.22;;;27.01
19102;BMP280;9683;49.028;12.064;2022-07-22T09:15:01;97551.03;;;27.01
19102;BMP280;9683;49.028;12.064;2022-07-22T09:17:31;97547.97;;;27.03
19102;BMP280;9683;49.028;12.064;2022-07-22T09:20:02;97548.16;;;27.06
19102;BMP280;9683;49.028;12.064;2022-07-22T09:22:36;97551.50;;;27.12
19102;BMP280;9683;49.028;12.064;2022-07-22T09:25:18;97546.19;;;27.15
19102;BMP280;9683;49.028;12.064;2022-07-22T09:27:45;97540.91;;;27.19
19102;BMP280;9683;49.028;12.064;2022-07-22T09:30:13;97552.78;;;27.23
19102;BMP280;9683;49.028;12.064;2022-07-22T09:32:42;97544.25;;;27.24
19102;BMP280;9683;49.028;12.064;2022-07-22T09:35:09;97538.13;;;27.27
19102;BMP280;9683;49.028;12.064;2022-07-22T09:37:46;97537.50;;;27.30
19102;BMP280;9683;49.028;12.064;2022-07-22T09:40:15;97526.22;;;27.32
19102;BMP280;9683;49.028;12.064;2022-07-22T09:42:47;97527.66;;;27.38
19102;BMP280;9683;49.028;12.064;2022-07-22T09:45:15;97524.63;;;27.40
19102;BMP280;9683;49.028;12.064;2022-07-22T09:47:42;97521.38;;;27.46
19102;BMP280;9683;49.028;12.064;2022-07-22T09:50:14;97512.34;;;27.54
19102;BMP280;9683;49.028;12.064;2022-07-22T09:52:42;97510.44;;;27.55
19102;BMP280;9683;49.028;12.064;2022-07-22T09:55:09;97508.66;;;27.59
19102;BMP280;9683;49.028;12.064;2022-07-22T09:57:36;97503.31;;;27.62
19102;BMP280;9683;49.028;12.064;2022-07-22T10:00:03;97502.03;;;27.68
19102;BMP280;9683;49.028;12.064;2022-07-22T10:02:31;97503.28;;;27.71
19102;BMP280;9683;49.028;12.064;2022-07-22T10:05:00;97499.56;;;27.75
19102;BMP280;9683;49.028;12.064;2022-07-22T10:07:27;97500.81;;;27.87
19102;BMP280;9683;49.028;12.064;2022-07-22T10:09:55;97498.38;;;27.94
19102;BMP280;9683;49.028;12.064;2022-07-22T10:12:22;97498.66;;;28.01
19102;BMP280;9683;49.028;12.064;2022-07-22T10:14:49;97495.25;;;28.04
19102;BMP280;9683;49.028;12.064;2022-07-22T10:17:16;97495.59;;;28.02
19102;BMP280;9683;49.028;12.064;2022-07-22T10:19:43;97482.69;;;28.11
19102;BMP280;9683;49.028;12.064;2022-07-22T10:25:16;97483.72;;;28.28
19102;BMP280;9683;49.028;12.064;2022-07-22T10:27:45;97473.69;;;28.32
19102;BMP280;9683;49.028;12.064;2022-07-22T10:30:14;97480.75;;;28.33
19102;BMP280;9683;49.028;12.064;2022-07-22T10:32:41;97483.50;;;28.33
19102;BMP280;9683;49.028;12.064;2022-07-22T10:35:25;97484.59;;;28.40
19102;BMP280;9683;49.028;12.064;2022-07-22T10:37:54;97471.72;;;28.41
19102;BMP280;9683;49.028;12.064;2022-07-22T10:40:23;97467.94;;;28.45
19102;BMP280;9683;49.028;12.064;2022-07-22T10:43:08;97464.56;;;28.48
19102;BMP280;9683;49.028;12.064;2022-07-22T10:45:38;97468.09;;;28.49
19102;BMP280;9683;49.028;12.064;2022-07-22T10:48:06;97462.75;;;28.52
19102;BMP280;9683;49.028;12.064;2022-07-22T10:50:49;97456.13;;;28.53
19102;BMP280;9683;49.028;12.064;2022-07-22T10:53:18;97460.59;;;28.58
19102;BMP280;9683;49.028;12.064;2022-07-22T10:56:05;97465.44;;;28.61
19102;BMP280;9683;49.028;12.064;2022-07-22T10:58:50;97467.03;;;28.62
19102;BMP280;9683;49.028;12.064;2022-07-22T11:01:19;97461.56;;;28.62
19102;BMP280;9683;49.028;12.064;2022-07-22T11:03:48;97458.81;;;28.62
19102;BMP280;9683;49.028;12.064;2022-07-22T11:06:17;97455.84;;;28.67
19102;BMP280;9683;49.028;12.064;2022-07-22T11:08:46;97455.94;;;28.79
19102;BMP280;9683;49.028;12.064;2022-07-22T11:11:15;97453.00;;;28.84
19102;BMP280;9683;49.028;12.064;2022-07-22T11:13:42;97446.63;;;28.92
19102;BMP280;9683;49.028;12.064;2022-07-22T11:16:17;97449.03;;;28.94
19102;BMP280;9683;49.028;12.064;2022-07-22T11:18:45;97445.50;;;28.93
19102;BMP280;9683;49.028;12.064;2022-07-22T11:21:15;97444.81;;;28.96
19102;BMP280;9683;49.028;12.064;2022-07-22T11:23:42;97435.91;;;28.99
19102;BMP280;9683;49.028;12.064;2022-07-22T11:26:10;97439.84;;;29.10
19102;BMP280;9683;49.028;12.064;2022-07-22T11:28:41;97430.69;;;29.19
19102;BMP280;9683;49.028;12.064;2022-07-22T11:31:09;97432.56;;;29.27
19102;BMP280;9683;49.028;12.064;2022-07-22T11:33:35;97429.00;;;29.26
19102;BMP280;9683;49.028;12.064;2022-07-22T11:36:03;97427.31;;;29.34
19102;BMP280;9683;49.028;12.064;2022-07-22T11:38:41;97423.22;;;29.40
19102;BMP280;9683;49.028;12.064;2022-07-22T11:41:08;97418.22;;;29.42
19102;BMP280;9683;49.028;12.064;2022-07-22T11:43:41;97416.94;;;29.51
19102;BMP280;9683;49.028;12.064;2022-07-22T11:46:08;97410.78;;;29.54
19102;BMP280;9683;49.028;12.064;2022-07-22T11:48:34;97411.03;;;29.62
19102;BMP280;9683;49.028;12.064;2022-07-22T11:51:03;97408.59;;;29.72
19102;BMP280;9683;49.028;12.064;2022-07-22T11:53:30;97399.44;;;29.80
19102;BMP280;9683;49.028;12.064;2022-07-22T11:55:57;97402.69;;;29.94
19102;BMP280;9683;49.028;12.064;2022-07-22T11:58:37;97404.16;;;30.04
19102;BMP280;9683;49.028;12.064;2022-07-22T12:01:06;97395.56;;;30.05
19102;BMP280;9683;49.028;12.064;2022-07-22T12:03:34;97392.13;;;30.09
19102;BMP280;9683;49.028;12.064;2022-07-22T12:06:02;97388.78;;;30.15
19102;BMP280;9683;49.028;12.064;2022-07-22T12:08:30;97383.06;;;30.20
19102;BMP280;9683;49.028;12.064;2022-07-22T12:10:57;97393.59;;;30.30
19102;BMP280;9683;49.028;12.064;2022-07-22T12:13:30;97386.81;;;30.28
19102;BMP280;9683;49.028;12.064;2022-07-22T12:15:58;97383.50;;;30.22
19102;BMP280;9683;49.028;12.064;2022-07-22T12:18:27;97387.63;;;30.28
19102;BMP280;9683;49.028;12.064;2022-07-22T12:20:55;97385.44;;;30.34
19102;BMP280;9683;49.028;12.064;2022-07-22T12:23:24;97374.97;;;30.39
19102;BMP280;9683;49.028;12.064;2022-07-22T12:25:56;97376.47;;;30.49
19102;BMP280;9683;49.028;12.064;2022-07-22T12:28:24;97373.22;;;30.59
19102;BMP280;9683;49.028;12.064;2022-07-22T12:30:53;97374.31;;;30.70
19102;BMP280;9683;49.028;12.064;2022-07-22T12:33:21;97366.38;;;30.81
19102;BMP280;9683;49.028;12.064;2022-07-22T12:36:03;97369.16;;;30.97
19102;BMP280;9683;49.028;12.064;2022-07-22T12:38:30;97366.03;;;30.98
19102;BMP280;9683;49.028;12.064;2022-07-22T12:41:25;97367.94;;;31.10
19102;BMP280;9683;49.028;12.064;2022-07-22T12:43:54;97366.34;;;31.24
19102;BMP280;9683;49.028;12.064;2022-07-22T12:46:21;97356.75;;;31.34
19102;BMP280;9683;49.028;12.064;2022-07-22T12:48:52;97354.63;;;31.43
19102;BMP280;9683;49.028;12.064;2022-07-22T12:51:18;97346.38;;;31.43
19102;BMP280;9683;49.028;12.064;2022-07-22T12:53:45;97351.63;;;31.48
19102;BMP280;9683;49.028;12.064;2022-07-22T12:56:12;97356.16;;;31.56
19102;BMP280;9683;49.028;12.064;2022-07-22T12:58:42;97331.97;;;31.65
19102;BMP280;9683;49.028;12.064;2022-07-22T13:01:09;97341.56;;;31.71
19102;BMP280;9683;49.028;12.064;2022-07-22T13:03:36;97349.34;;;31.85
19102;BMP280;9683;49.028;12.064;2022-07-22T13:06:04;97333.91;;;32.00
19102;BMP280;9683;49.028;12.064;2022-07-22T13:08:32;97336.97;;;32.10
19102;BMP280;9683;49.028;12.064;2022-07-22T13:10:59;97336.28;;;32.17
19102;BMP280;9683;49.028;12.064;2022-07-22T13:13:26;97338.78;;;32.22
19102;BMP280;9683;49.028;12.064;2022-07-22T13:15:55;97340.09;;;32.28
19102;BMP280;9683;49.028;12.064;2022-07-22T13:18:21;97331.97;;;32.35
19102;BMP280;9683;49.028;12.064;2022-07-22T13:20:48;97330.72;;;32.52
19102;BMP280;9683;49.028;12.064;2022-07-22T13:23:15;97325.13;;;32.67
19102;BMP280;9683;49.028;12.064;2022-07-22T13:25:41;97328.09;;;32.78
19102;BMP280;9683;49.028;12.064;2022-07-22T13:28:09;97327.88;;;32.87
19102;BMP280;9683;49.028;12.064;2022-07-22T13:30:35;97326.03;;;32.94
19102;BMP280;9683;49.028;12.064;2022-07-22T13:33:04;97328.59;;;33.06
19102;BMP280;9683;49.028;12.064;2022-07-22T13:35:30;97325.28;;;33.16
19102;BMP280;9683;49.028;12.064;2022-07-22T13:37:57;97322.63;;;33.24
19102;BMP280;9683;49.028;12.064;2022-07-22T13:40:24;97321.22;;;33.33
19102;BMP280;9683;49.028;12.064;2022-07-22T13:42:51;97318.91;;;33.39
19102;BMP280;9683;49.028;12.064;2022-07-22T13:45:18;97323.38;;;33.47
19102;BMP280;9683;49.028;12.064;2022-07-22T13:47:45;97327.44;;;33.53
19102;BMP280;9683;49.028;12.064;2022-07-22T13:50:13;97330.31;;;33.60
19102;BMP280;9683;49.028;12.064;2022-07-22T13:52:40;97318.13;;;33.64
19102;BMP280;9683;49.028;12.064;2022-07-22T13:55:07;97317.50;;;33.71
19102;BMP280;9683;49.028;12.064;2022-07-22T13:57:34;97313.66;;;33.56
19102;BMP280;9683;49.028;12.064;2022-07-22T14:00:02;97299.22;;;33.40
19102;BMP280;9683;49.028;12.064;2022-07-22T14:02:28;97316.94;;;33.39
19102;BMP280;9683;49.028;12.064;2022-07-22T14:04:55;97308.75;;;33.46
19102;BMP280;9683;49.028;12.064;2022-07-22T14:07:23;97306.00;;;33.69
19102;BMP280;9683;49.028;12.064;2022-07-22T14:09:50;97306.28;;;33.90
19102;BMP280;9683;49.028;12.064;2022-07-22T14:12:16;97302.25;;;34.14
19102;BMP280;9683;49.028;12.064;2022-07-22T14:14:43;97304.16;;;34.36